createdAt,value
2022-12-15T00:02:19.954Z,82.93
2022-12-15T00:05:05.629Z,78.77
2022-12-15T00:07:51.575Z,76.37
2022-12-15T00:10:36.976Z,74.27
2022-12-15T00:13:22.521Z,70.23
2022-12-15T00:16:08.069Z,74.70
2022-12-15T00:18:54.956Z,69.00
2022-12-15T00:21:40.841Z,63.90
2022-12-15T00:24:26.313Z,68.07
2022-12-15T00:27:12.102Z,62.70
2022-12-15T00:29:57.521Z,65.27
2022-12-15T00:32:42.928Z,63.63
2022-12-15T00:35:29.926Z,72.13
2022-12-15T00:38:16.060Z,72.07
2022-12-15T00:40:44.431Z,73.67
2022-12-15T00:43:12.680Z,75.40
2022-12-15T00:45:58.943Z,74.50
2022-12-15T00:48:27.180Z,83.40
2022-12-15T00:50:55.785Z,82.97
2022-12-15T00:53:41.911Z,84.67
2022-12-15T00:56:27.994Z,74.27
2022-12-15T00:59:13.603Z,77.73
2022-12-15T01:01:59.476Z,74.33
2022-12-15T01:04:45.490Z,75.67
2022-12-15T01:07:32.387Z,75.90
2022-12-15T01:10:17.942Z,67.67
2022-12-15T01:13:03.633Z,71.37
2022-12-15T01:15:49.339Z,69.10
2022-12-15T01:18:34.810Z,64.63
2022-12-15T01:21:05.095Z,61.33
2022-12-15T01:23:34.688Z,62.43
2022-12-15T01:26:03.234Z,64.50
2022-12-15T01:28:31.555Z,56.67
2022-12-15T01:30:59.847Z,61.13
2022-12-15T01:33:28.556Z,61.30
2022-12-15T01:35:58.842Z,60.37
2022-12-15T01:38:27.194Z,64.30
2022-12-15T01:40:58.394Z,60.27
2022-12-15T01:43:28.212Z,59.77
2022-12-15T01:46:04.262Z,62.23
2022-12-15T01:48:36.311Z,62.97
2022-12-15T01:51:13.909Z,64.73
2022-12-15T01:53:44.179Z,64.23
2022-12-15T01:56:14.329Z,67.13
2022-12-15T01:58:44.007Z,65.07
2022-12-15T02:01:12.312Z,67.43
2022-12-15T02:03:40.687Z,64.90
2022-12-15T02:06:09.351Z,68.93
2022-12-15T02:08:37.405Z,74.87
2022-12-15T02:11:24.832Z,71.53
2022-12-15T02:13:57.302Z,72.20
2022-12-15T02:16:27.928Z,72.17
2022-12-15T02:18:59.731Z,69.90
2022-12-15T02:21:30.498Z,65.20
2022-12-15T02:24:19.368Z,72.03
2022-12-15T02:27:12.961Z,74.03
2022-12-15T02:30:21.969Z,69.43
2022-12-15T02:32:55.923Z,77.17
2022-12-15T02:35:27.518Z,72.07
2022-12-15T02:37:55.768Z,71.27
2022-12-15T02:40:24.032Z,73.40
2022-12-15T02:42:53.653Z,73.40
2022-12-15T02:45:25.760Z,74.63
2022-12-15T02:47:56.182Z,71.97
2022-12-15T02:50:31.634Z,76.40
2022-12-15T02:53:04.582Z,69.87
2022-12-15T02:55:37.814Z,80.10
2022-12-15T02:58:08.178Z,74.03
2022-12-15T03:00:40.426Z,72.77
2022-12-15T03:03:08.892Z,76.40
2022-12-15T03:05:37.310Z,77.50
2022-12-15T03:08:05.798Z,73.47
2022-12-15T03:10:34.098Z,76.17
2022-12-15T03:13:03.609Z,67.50
2022-12-15T03:15:35.479Z,73.73
2022-12-15T03:18:05.516Z,70.83
2022-12-15T03:20:33.835Z,71.33
2022-12-15T03:23:02.519Z,78.83
2022-12-15T03:25:30.926Z,78.93
2022-12-15T03:27:59.230Z,88.13
2022-12-15T03:30:27.384Z,83.70
2022-12-15T03:32:55.504Z,82.63
2022-12-15T03:35:25.079Z,76.87
2022-12-15T03:37:53.165Z,80.47
2022-12-15T03:40:21.211Z,84.20
2022-12-15T03:42:49.379Z,79.67
2022-12-15T03:45:18.141Z,75.93
2022-12-15T03:47:46.338Z,77.43
2022-12-15T03:50:15.243Z,80.30
2022-12-15T03:52:44.858Z,75.97
2022-12-15T03:55:13.043Z,73.23
2022-12-15T03:57:42.389Z,77.67
2022-12-15T04:00:12.223Z,79.10
2022-12-15T04:02:40.542Z,83.80
2022-12-15T04:05:09.463Z,83.53
2022-12-15T04:07:38.013Z,82.37
2022-12-15T04:10:08.271Z,84.30
2022-12-15T04:12:39.879Z,82.07
2022-12-15T04:15:09.222Z,87.93
2022-12-15T04:17:37.491Z,84.27
2022-12-15T04:20:12.205Z,90.27
2022-12-15T04:22:40.493Z,88.60
2022-12-15T04:25:28.535Z,80.60
2022-12-15T04:28:13.880Z,90.87
2022-12-15T04:31:02.703Z,93.07
2022-12-15T04:33:48.283Z,87.20
2022-12-15T04:36:34.007Z,88.93
2022-12-15T04:39:19.470Z,89.63
2022-12-15T04:42:06.404Z,86.87
2022-12-15T04:44:51.961Z,82.53
2022-12-15T04:47:37.357Z,81.37
2022-12-15T04:50:23.219Z,84.27
2022-12-15T04:53:08.711Z,84.13
2022-12-15T04:55:54.835Z,79.23
2022-12-15T04:58:41.738Z,84.77
2022-12-15T05:01:27.235Z,85.27
2022-12-15T05:04:12.902Z,81.13
2022-12-15T05:06:58.225Z,82.43
2022-12-15T05:09:43.789Z,80.63
2022-12-15T05:12:29.415Z,75.27
2022-12-15T05:15:16.461Z,80.50
2022-12-15T05:18:02.298Z,81.47
2022-12-15T05:20:49.843Z,82.13
2022-12-15T05:23:35.839Z,81.30
2022-12-15T05:26:21.376Z,87.70
2022-12-15T05:29:06.665Z,81.77
2022-12-15T05:31:52.065Z,80.23
2022-12-15T05:34:21.891Z,84.87
2022-12-15T05:36:50.144Z,84.47
2022-12-15T05:39:18.419Z,78.63
2022-12-15T05:41:46.760Z,83.63
2022-12-15T05:44:15.070Z,75.53
2022-12-15T05:46:44.736Z,76.90
2022-12-15T05:49:14.982Z,76.97
2022-12-15T05:51:43.714Z,71.57
2022-12-15T05:54:12.672Z,75.53
2022-12-15T05:56:40.919Z,79.53
2022-12-15T05:59:09.078Z,82.07
2022-12-15T06:01:37.944Z,76.47
2022-12-15T06:04:09.870Z,77.73
2022-12-15T06:06:38.055Z,74.30
2022-12-15T06:09:06.335Z,73.57
2022-12-15T06:11:34.734Z,77.00
2022-12-15T06:14:02.875Z,74.23
2022-12-15T06:16:31.220Z,71.27
2022-12-15T06:19:00.539Z,76.77
2022-12-15T06:21:31.064Z,72.27
2022-12-15T06:23:59.654Z,70.47
2022-12-15T06:26:28.709Z,73.63
2022-12-15T06:28:58.318Z,80.63
2022-12-15T06:31:26.990Z,76.73
2022-12-15T06:34:01.265Z,79.20
2022-12-15T06:36:31.782Z,78.00
2022-12-15T06:39:00.596Z,75.50
2022-12-15T06:41:30.237Z,71.80
2022-12-15T06:43:58.580Z,78.07
2022-12-15T06:46:27.014Z,74.27
2022-12-15T06:48:55.380Z,75.13
2022-12-15T06:51:23.578Z,80.37
2022-12-15T06:53:54.255Z,67.33
2022-12-15T06:56:28.879Z,71.33
2022-12-15T06:59:00.795Z,68.27
2022-12-15T07:01:29.369Z,69.83
2022-12-15T07:04:00.132Z,65.93
2022-12-15T07:06:29.712Z,72.63
2022-12-15T07:08:59.167Z,71.27
2022-12-15T07:11:27.334Z,72.17
2022-12-15T07:13:55.436Z,80.70
2022-12-15T07:16:24.780Z,65.43
2022-12-15T07:18:52.986Z,70.10
2022-12-15T07:21:21.138Z,68.83
2022-12-15T07:23:57.913Z,64.00
2022-12-15T07:26:27.689Z,61.90
2022-12-15T07:28:56.432Z,65.90
2022-12-15T07:31:24.785Z,64.40
2022-12-15T07:33:54.975Z,72.10
2022-12-15T07:36:23.508Z,62.57
2022-12-15T07:38:51.994Z,66.67
2022-12-15T07:41:20.747Z,70.60
2022-12-15T07:43:50.462Z,78.23
2022-12-15T07:46:18.903Z,65.13
2022-12-15T07:48:50.398Z,60.13
2022-12-15T07:51:20.713Z,58.67
2022-12-15T07:53:49.812Z,59.23
2022-12-15T07:56:18.034Z,57.40
2022-12-15T07:58:46.109Z,59.57
2022-12-15T08:01:15.931Z,61.97
2022-12-15T08:03:45.135Z,61.43
2022-12-15T08:06:14.249Z,60.80
2022-12-15T08:08:42.394Z,60.13
2022-12-15T08:11:11.707Z,65.27
2022-12-15T08:16:29.772Z,61.37
2022-12-15T08:18:58.204Z,61.10
2022-12-15T08:21:26.316Z,59.57
2022-12-15T08:23:55.182Z,57.40
2022-12-15T08:26:28.436Z,59.87
2022-12-15T08:29:11.849Z,60.20
2022-12-15T08:31:47.271Z,63.37
2022-12-15T08:34:15.364Z,54.37
2022-12-15T08:36:43.531Z,55.17
2022-12-15T08:39:11.601Z,56.47
2022-12-15T08:41:41.208Z,57.23
2022-12-15T08:44:09.305Z,56.70
2022-12-15T08:46:37.490Z,59.80
2022-12-15T08:49:06.901Z,56.80
2022-12-15T08:51:34.971Z,53.77
2022-12-15T08:54:03.036Z,57.53
2022-12-15T08:56:31.227Z,59.30
2022-12-15T08:59:00.023Z,58.90
2022-12-15T09:01:28.973Z,56.27
2022-12-15T09:03:57.402Z,61.40
2022-12-15T09:06:28.674Z,61.67
2022-12-15T09:08:57.616Z,62.83
2022-12-15T09:11:25.729Z,57.67
2022-12-15T09:13:53.809Z,60.63
2022-12-15T09:16:22.621Z,44.07
2022-12-15T09:18:52.066Z,50.07
2022-12-15T09:21:22.461Z,50.27
2022-12-15T09:23:52.247Z,45.40
2022-12-15T09:26:21.359Z,54.97
2022-12-15T09:28:50.107Z,42.83
2022-12-15T09:31:20.954Z,48.67
2022-12-15T09:33:49.122Z,43.77
2022-12-15T09:36:17.338Z,47.27
2022-12-15T09:38:45.459Z,49.33
2022-12-15T09:41:21.526Z,50.17
2022-12-15T09:43:53.932Z,49.87
2022-12-15T09:46:27.620Z,54.17
2022-12-15T09:48:55.851Z,52.10
2022-12-15T09:51:27.109Z,51.20
2022-12-15T09:53:56.385Z,54.90
2022-12-15T09:56:32.076Z,50.00
2022-12-15T09:59:04.547Z,47.10
2022-12-15T10:01:33.849Z,49.50
2022-12-15T10:04:03.372Z,50.10
2022-12-15T10:06:33.622Z,51.13
2022-12-15T10:09:03.152Z,53.27
2022-12-15T10:11:42.021Z,142.33
2022-12-15T10:14:16.802Z,60.03
2022-12-15T10:16:52.874Z,47.13
2022-12-15T10:19:23.508Z,42.60
2022-12-15T10:21:51.745Z,48.73
2022-12-15T10:24:44.575Z,39.30
2022-12-15T10:27:19.390Z,38.57
2022-12-15T10:29:51.313Z,39.63
2022-12-15T10:32:20.454Z,37.80
2022-12-15T10:34:49.034Z,39.07
2022-12-15T10:37:20.158Z,39.33
2022-12-15T10:39:50.129Z,39.67
2022-12-15T10:42:21.919Z,40.13
2022-12-15T10:44:50.956Z,40.07
2022-12-15T10:47:21.188Z,38.47
2022-12-15T10:49:49.264Z,39.47
2022-12-15T10:52:22.567Z,41.40
2022-12-15T10:54:51.654Z,45.87
2022-12-15T10:57:23.536Z,45.07
2022-12-15T10:59:52.532Z,40.57
2022-12-15T11:05:22.667Z,37.73
2022-12-15T11:10:53.650Z,44.13
2022-12-15T11:13:23.598Z,39.77
2022-12-15T11:15:53.239Z,41.50
2022-12-15T11:18:30.553Z,44.80
2022-12-15T11:21:02.815Z,41.40
2022-12-15T11:23:39.235Z,38.60
2022-12-15T11:26:17.100Z,39.77
2022-12-15T11:28:49.686Z,41.73
2022-12-15T11:31:20.814Z,41.70
2022-12-15T11:33:49.280Z,43.77
2022-12-15T11:36:22.298Z,48.43
2022-12-15T11:38:52.267Z,46.53
2022-12-15T11:41:32.217Z,48.13
2022-12-15T11:44:24.657Z,44.00
2022-12-15T11:46:57.126Z,46.40
2022-12-15T11:50:10.796Z,45.13
2022-12-15T11:52:49.996Z,49.73
2022-12-15T11:55:29.626Z,46.43
2022-12-15T11:58:21.547Z,44.27
2022-12-15T12:00:53.509Z,47.63
2022-12-15T12:03:27.833Z,41.70
2022-12-15T12:06:08.263Z,45.07
2022-12-15T12:09:00.233Z,45.47
2022-12-15T12:11:29.815Z,52.13
2022-12-15T12:14:11.660Z,48.67
2022-12-15T12:16:43.803Z,49.47
2022-12-15T12:19:12.719Z,49.40
2022-12-15T12:21:42.066Z,48.53
2022-12-15T12:24:13.242Z,51.73
2022-12-15T12:26:43.177Z,53.57
2022-12-15T12:29:15.246Z,50.40
2022-12-15T12:31:51.617Z,51.30
2022-12-15T12:34:23.527Z,48.43
2022-12-15T12:36:51.584Z,46.57
2022-12-15T12:39:21.150Z,46.00
2022-12-15T12:41:51.211Z,53.87
2022-12-15T12:44:23.532Z,47.57
2022-12-15T12:46:54.154Z,45.73
2022-12-15T12:49:26.842Z,47.57
2022-12-15T12:51:55.534Z,45.53
2022-12-15T12:54:41.383Z,47.00
2022-12-15T12:57:37.271Z,47.73
2022-12-15T13:00:22.118Z,47.37
2022-12-15T13:03:16.457Z,51.50
2022-12-15T13:05:45.957Z,49.83
2022-12-15T13:08:50.857Z,53.03
2022-12-15T13:12:00.849Z,52.57
2022-12-15T13:14:35.117Z,48.33
2022-12-15T13:20:17.516Z,54.83
2022-12-15T13:22:45.664Z,52.23
2022-12-15T13:25:38.864Z,48.93
2022-12-15T13:28:25.473Z,50.63
2022-12-15T13:31:13.263Z,48.17
2022-12-15T13:33:46.229Z,51.23
2022-12-15T13:36:50.713Z,47.93
2022-12-15T13:39:55.826Z,47.90
2022-12-15T13:42:52.891Z,39.97
2022-12-15T13:45:51.313Z,50.83
2022-12-15T13:48:28.754Z,49.57
2022-12-15T13:51:17.039Z,51.30
2022-12-15T13:53:51.488Z,52.20
2022-12-15T13:56:27.941Z,45.13
2022-12-15T13:58:59.516Z,43.97
2022-12-15T14:01:32.334Z,46.20
2022-12-15T14:04:05.042Z,55.67
2022-12-15T14:06:36.871Z,48.20
2022-12-15T14:09:07.281Z,48.93
2022-12-15T14:11:53.879Z,43.60
2022-12-15T14:14:24.992Z,47.37
2022-12-15T14:16:57.845Z,48.67
2022-12-15T14:19:26.502Z,44.97
2022-12-15T14:21:55.310Z,44.27
2022-12-15T14:24:38.615Z,43.43
2022-12-15T14:27:07.656Z,39.80
2022-12-15T14:29:35.782Z,42.73
2022-12-15T14:32:04.008Z,52.40
2022-12-15T14:34:33.498Z,52.97
2022-12-15T14:37:04.743Z,52.17
2022-12-15T14:39:37.170Z,48.40
2022-12-15T14:42:05.453Z,48.77
2022-12-15T14:44:38.011Z,53.43
2022-12-15T14:47:07.887Z,54.70
2022-12-15T14:49:39.896Z,63.37
2022-12-15T14:52:08.552Z,63.60
2022-12-15T14:54:38.839Z,67.13
2022-12-15T14:57:15.433Z,70.60
2022-12-15T14:59:44.763Z,64.17
2022-12-15T15:02:15.683Z,70.53
2022-12-15T15:03:12.193Z,41.10
2022-12-15T15:03:14.080Z,38.93
2022-12-15T15:04:43.922Z,68.23
2022-12-15T15:07:17.581Z,71.13
2022-12-15T15:09:47.239Z,73.37
2022-12-15T15:12:16.351Z,65.37
2022-12-15T15:14:45.977Z,66.70
2022-12-15T15:17:32.125Z,73.40
2022-12-15T15:20:01.632Z,67.90
2022-12-15T15:22:35.601Z,56.97
2022-12-15T15:25:20.093Z,71.60
2022-12-15T15:27:48.443Z,70.60
2022-12-15T15:30:21.456Z,67.87
2022-12-15T15:32:56.768Z,70.53
2022-12-15T15:35:26.470Z,73.73
2022-12-15T15:37:55.165Z,72.97
2022-12-15T15:40:24.622Z,77.07
2022-12-15T15:42:52.733Z,79.20
2022-12-15T15:45:20.943Z,76.00
2022-12-15T15:47:50.140Z,71.67
2022-12-15T15:50:19.887Z,74.17
2022-12-15T15:52:48.059Z,91.70
2022-12-15T15:55:17.005Z,91.57
2022-12-15T15:57:47.066Z,79.37
2022-12-15T16:00:20.449Z,81.00
2022-12-15T16:02:48.859Z,96.83
2022-12-15T16:05:17.295Z,94.40
2022-12-15T16:07:46.639Z,89.87
2022-12-15T16:10:16.186Z,78.30
2022-12-15T16:12:46.752Z,74.40
2022-12-15T16:15:16.720Z,71.47
2022-12-15T16:17:44.921Z,65.60
2022-12-15T16:20:13.864Z,64.83
2022-12-15T16:22:42.211Z,68.97
2022-12-15T16:25:17.618Z,64.97
2022-12-15T16:27:47.101Z,66.13
2022-12-15T16:30:20.119Z,73.70
2022-12-15T16:32:48.190Z,84.17
2022-12-15T16:35:16.569Z,81.67
2022-12-15T16:37:47.049Z,82.63
2022-12-15T16:40:17.464Z,78.87
2022-12-15T16:42:52.473Z,76.57
2022-12-15T16:45:20.894Z,83.13
2022-12-15T16:47:49.366Z,75.77
2022-12-15T16:50:21.045Z,72.03
2022-12-15T16:52:50.590Z,76.00
2022-12-15T16:55:20.456Z,62.97
2022-12-15T16:57:50.093Z,63.53
2022-12-15T17:00:20.685Z,67.67
2022-12-15T17:02:49.152Z,59.47
2022-12-15T17:05:17.748Z,62.37
2022-12-15T17:07:46.909Z,69.67
2022-12-15T17:10:19.419Z,70.10
2022-12-15T17:12:49.002Z,87.90
2022-12-15T17:15:21.853Z,83.03
2022-12-15T17:17:50.102Z,81.20
2022-12-15T17:20:29.199Z,80.70
2022-12-15T17:22:58.993Z,77.27
2022-12-15T17:26:00.852Z,80.07
2022-12-15T17:28:18.997Z,85.33
2022-12-15T17:30:47.227Z,83.03
2022-12-15T17:33:19.405Z,80.97
2022-12-15T17:35:48.014Z,84.10
2022-12-15T17:38:16.843Z,87.17
2022-12-15T17:40:45.035Z,89.80
2022-12-15T17:43:14.091Z,90.37
2022-12-15T17:45:43.873Z,93.67
2022-12-15T17:48:12.161Z,94.03
2022-12-15T17:50:40.289Z,92.67
2022-12-15T17:53:08.773Z,97.23
2022-12-15T17:55:36.947Z,103.10
2022-12-15T17:58:07.830Z,91.37
2022-12-15T18:00:36.299Z,97.37
2022-12-15T18:03:06.035Z,90.53
2022-12-15T18:05:34.367Z,92.57
2022-12-15T18:08:04.219Z,98.67
2022-12-15T18:10:33.909Z,96.87
2022-12-15T18:13:02.032Z,109.67
2022-12-15T18:15:31.268Z,102.73
2022-12-15T18:18:00.759Z,114.50
2022-12-15T18:20:31.118Z,103.27
2022-12-15T18:22:59.150Z,101.83
2022-12-15T18:25:28.368Z,107.77
2022-12-15T18:27:56.649Z,104.93
2022-12-15T18:30:26.383Z,110.93
2022-12-15T18:32:55.870Z,103.30
2022-12-15T18:35:34.897Z,108.60
2022-12-15T18:38:04.420Z,107.67
2022-12-15T18:40:32.518Z,109.83
2022-12-15T18:43:00.565Z,104.37
2022-12-15T18:45:28.841Z,106.33
2022-12-15T18:47:57.023Z,110.40
2022-12-15T18:50:26.635Z,111.63
2022-12-15T18:52:58.894Z,106.37
2022-12-15T18:55:30.099Z,109.50
2022-12-15T18:57:58.932Z,105.30
2022-12-15T19:00:28.290Z,112.13
2022-12-15T19:02:57.450Z,113.57
2022-12-15T19:05:29.533Z,108.40
2022-12-15T19:07:59.405Z,110.53
2022-12-15T19:10:30.991Z,117.27
2022-12-15T19:12:59.251Z,114.93
2022-12-15T19:15:27.488Z,120.10
2022-12-15T19:18:13.291Z,106.40
2022-12-15T19:20:58.965Z,107.27
2022-12-15T19:23:27.340Z,92.93
2022-12-15T19:25:56.922Z,96.93
2022-12-15T19:28:25.148Z,92.00
2022-12-15T19:30:53.398Z,90.33
2022-12-15T19:33:21.589Z,92.63
2022-12-15T19:35:51.543Z,90.70
2022-12-15T19:38:24.373Z,88.93
2022-12-15T19:40:54.559Z,94.67
2022-12-15T19:43:24.420Z,90.23
2022-12-15T19:45:53.118Z,90.60
2022-12-15T19:48:23.788Z,89.37
2022-12-15T19:50:54.562Z,90.80
2022-12-15T19:53:25.772Z,94.13
2022-12-15T19:55:54.624Z,87.20
2022-12-15T19:58:28.154Z,88.50
2022-12-15T20:00:57.373Z,89.03
2022-12-15T20:03:25.731Z,92.83
2022-12-15T20:05:54.404Z,94.63
2022-12-15T20:08:24.404Z,89.13
2022-12-15T20:10:53.982Z,87.43
2022-12-15T20:13:22.241Z,86.30
2022-12-15T20:15:51.797Z,87.83
2022-12-15T20:18:20.197Z,92.03
2022-12-15T20:20:48.939Z,92.03
2022-12-15T20:23:18.536Z,92.53
2022-12-15T20:25:47.445Z,91.97
2022-12-15T20:28:18.228Z,102.77
2022-12-15T20:30:46.486Z,96.50
2022-12-15T20:33:16.064Z,94.03
2022-12-15T20:35:44.406Z,97.80
2022-12-15T20:38:27.899Z,101.00
2022-12-15T20:40:56.339Z,92.97
2022-12-15T20:43:24.721Z,105.57
2022-12-15T20:45:58.591Z,96.10
2022-12-15T20:48:28.368Z,100.97
2022-12-15T20:50:56.669Z,92.90
2022-12-15T20:53:25.834Z,90.57
2022-12-15T20:55:54.790Z,102.13
2022-12-15T20:58:24.238Z,91.33
2022-12-15T21:00:55.498Z,94.23
2022-12-15T21:03:25.579Z,109.83
2022-12-15T21:05:55.944Z,107.63
2022-12-15T21:08:25.446Z,113.00
2022-12-15T21:10:53.940Z,108.37
2022-12-15T21:13:24.064Z,107.53
2022-12-15T21:15:52.474Z,106.70
2022-12-15T21:19:03.568Z,111.50
2022-12-15T21:21:16.766Z,108.67
2022-12-15T21:23:44.885Z,98.17
2022-12-15T21:26:13.097Z,105.37
2022-12-15T21:28:41.428Z,98.17
2022-12-15T21:31:10.177Z,105.67
2022-12-15T21:33:38.580Z,99.93
2022-12-15T21:36:07.335Z,93.70
2022-12-15T21:38:38.855Z,99.23
2022-12-15T21:41:08.020Z,98.83
2022-12-15T21:43:36.678Z,96.87
2022-12-15T21:46:11.753Z,95.13
2022-12-15T21:48:57.472Z,107.00
2022-12-15T21:51:25.667Z,112.67
2022-12-15T21:53:55.173Z,94.93
2022-12-15T21:56:23.293Z,96.80
2022-12-15T21:58:52.805Z,108.07
2022-12-15T22:01:24.521Z,100.23
2022-12-15T22:03:54.710Z,104.03
2022-12-15T22:06:23.603Z,101.57
2022-12-15T22:08:52.591Z,99.47
2022-12-15T22:11:24.428Z,98.37
2022-12-15T22:13:53.176Z,97.70
2022-12-15T22:16:23.573Z,105.10
2022-12-15T22:18:52.891Z,97.47
2022-12-15T22:21:23.090Z,89.83
2022-12-15T22:23:51.213Z,102.77
2022-12-15T22:26:24.094Z,100.37
2022-12-15T22:28:52.249Z,92.67
2022-12-15T22:31:20.359Z,87.50
2022-12-15T22:33:48.464Z,90.10
2022-12-15T22:36:16.575Z,93.73
2022-12-15T22:38:45.362Z,89.63
2022-12-15T22:41:16.426Z,91.57
2022-12-15T22:43:46.323Z,90.17
2022-12-15T22:46:15.125Z,92.00
2022-12-15T22:48:43.763Z,88.23
2022-12-15T22:51:13.577Z,89.23
2022-12-15T22:53:41.803Z,81.23
2022-12-15T22:56:23.440Z,78.57
2022-12-15T22:58:55.423Z,90.20
2022-12-15T23:01:23.586Z,90.23
2022-12-15T23:03:52.238Z,91.13
2022-12-15T23:06:20.401Z,84.53
2022-12-15T23:08:55.877Z,88.00
2022-12-15T23:11:38.800Z,84.57
2022-12-15T23:14:09.315Z,76.27
2022-12-15T23:16:36.582Z,73.40
2022-12-15T23:19:04.886Z,82.37
2022-12-15T23:21:33.458Z,74.87
2022-12-15T23:24:01.531Z,80.50
2022-12-15T23:26:29.731Z,74.03
2022-12-15T23:28:57.866Z,72.83
2022-12-15T23:31:27.606Z,77.00
2022-12-15T23:33:55.832Z,70.13
2022-12-15T23:36:23.911Z,69.57
2022-12-15T23:38:55.039Z,71.67
2022-12-15T23:41:23.231Z,67.67
2022-12-15T23:43:51.417Z,64.97
2022-12-15T23:46:20.071Z,66.80
2022-12-15T23:48:49.579Z,65.27
2022-12-15T23:51:20.688Z,69.30
2022-12-15T23:53:48.932Z,63.33
2022-12-15T23:56:18.118Z,63.00
2022-12-15T23:58:46.595Z,62.53
